createdAt,value
2019-01-31T00:01:35.686Z,98090.47
2019-01-31T00:04:31.527Z,98087.97
2019-01-31T00:07:31.848Z,98088.37
2019-01-31T00:10:26.858Z,98083.36
2019-01-31T00:13:17.582Z,98080.84
2019-01-31T00:16:12.389Z,98085.85
2019-01-31T00:18:51.142Z,98089.64
2019-01-31T00:22:02.664Z,98087.58
2019-01-31T00:25:05.128Z,98082.55
2019-01-31T00:28:02.946Z,98081.30
2019-01-31T00:31:01.846Z,98089.23
2019-01-31T00:34:06.117Z,98090.91
2019-01-31T00:37:03.289Z,98089.67
2019-01-31T00:40:02.906Z,98090.92
2019-01-31T00:43:32.702Z,98092.19
2019-01-31T00:46:35.452Z,98097.66
2019-01-31T00:49:23.142Z,98098.09
2019-01-31T00:52:31.950Z,98105.20
2019-01-31T00:55:31.012Z,98108.55
2019-01-31T00:58:18.845Z,98092.21
2019-01-31T01:01:19.339Z,98101.02
2019-01-31T01:04:31.405Z,98103.52
2019-01-31T01:07:41.510Z,98102.70
2019-01-31T01:10:32.479Z,98104.39
2019-01-31T01:13:35.984Z,98101.46
2019-01-31T01:16:51.515Z,98100.20
2019-01-31T01:19:48.924Z,98096.86
2019-01-31T01:22:44.517Z,98097.70
2019-01-31T01:25:52.011Z,98101.91
2019-01-31T01:28:53.255Z,98101.06
2019-01-31T01:32:06.532Z,98104.00
2019-01-31T01:35:06.237Z,98099.80
2019-01-31T01:38:12.010Z,98101.06
2019-01-31T01:41:18.745Z,98095.22
2019-01-31T01:44:17.924Z,98091.86
2019-01-31T01:47:12.588Z,98092.28
2019-01-31T01:50:26.808Z,98094.80
2019-01-31T01:53:35.914Z,98093.13
2019-01-31T01:56:29.303Z,98106.09
2019-01-31T01:59:13.979Z,98103.59
2019-01-31T02:02:22.944Z,98097.73
2019-01-31T02:05:34.288Z,98103.61
2019-01-31T02:08:32.046Z,98100.70
2019-01-31T02:11:23.367Z,98099.43
2019-01-31T02:14:22.127Z,98096.47
2019-01-31T02:17:20.314Z,98102.36
2019-01-31T02:20:46.442Z,98098.17
2019-01-31T02:24:01.621Z,98093.96
2019-01-31T02:27:04.771Z,98092.30
2019-01-31T02:30:18.193Z,98092.71
2019-01-31T02:33:14.437Z,98097.31
2019-01-31T02:36:24.139Z,98093.13
2019-01-31T02:39:25.930Z,98098.16
2019-01-31T02:42:34.696Z,98089.38
2019-01-31T02:45:56.746Z,98091.48
2019-01-31T02:49:17.505Z,98086.02
2019-01-31T02:52:06.485Z,98090.65
2019-01-31T02:55:18.823Z,98081.01
2019-01-31T02:58:24.666Z,98081.86
2019-01-31T03:01:43.604Z,98082.69
2019-01-31T03:04:27.817Z,98083.10
2019-01-31T03:07:51.086Z,98078.91
2019-01-31T03:10:45.468Z,98076.41
2019-01-31T03:13:31.250Z,98080.61
2019-01-31T03:16:39.906Z,98081.02
2019-01-31T03:19:28.231Z,98072.64
2019-01-31T03:22:36.738Z,98076.83
2019-01-31T03:25:29.927Z,98073.05
2019-01-31T03:28:23.667Z,98079.34
2019-01-31T03:31:24.483Z,98078.52
2019-01-31T03:34:08.084Z,98080.59
2019-01-31T03:37:46.976Z,98075.56
2019-01-31T03:40:53.717Z,98076.41
2019-01-31T03:44:05.671Z,98076.81
2019-01-31T03:47:01.056Z,98081.85
2019-01-31T03:50:15.004Z,98075.55
2019-01-31T03:53:34.760Z,98073.01
2019-01-31T03:56:31.570Z,98080.95
2019-01-31T03:59:11.007Z,98086.39
2019-01-31T04:02:25.783Z,98076.73
2019-01-31T04:05:27.795Z,98074.63
2019-01-31T04:07:59.613Z,98075.85
2019-01-31T04:10:30.417Z,98075.41
2019-01-31T04:13:01.511Z,98078.73
2019-01-31T04:15:33.091Z,98072.45
2019-01-31T04:18:04.977Z,98077.91
2019-01-31T04:20:35.328Z,98065.35
2019-01-31T04:23:06.092Z,98073.31
2019-01-31T04:25:36.630Z,98063.27
2019-01-31T04:28:07.066Z,98065.35
2019-01-31T04:30:38.600Z,98065.33
2019-01-31T04:33:09.577Z,98070.33
2019-01-31T04:35:40.812Z,98070.72
2019-01-31T04:38:11.625Z,98066.95
2019-01-31T04:40:42.761Z,98070.72
2019-01-31T04:43:13.641Z,98066.16
2019-01-31T04:45:45.604Z,98063.22
2019-01-31T04:48:15.989Z,98064.07
2019-01-31T04:50:46.671Z,98063.20
2019-01-31T04:53:17.565Z,98061.11
2019-01-31T04:55:48.642Z,98057.33
2019-01-31T04:58:19.637Z,98055.21
2019-01-31T05:00:50.577Z,98054.36
2019-01-31T05:03:20.956Z,98058.13
2019-01-31T05:05:52.702Z,98059.39
2019-01-31T05:08:23.591Z,98061.48
2019-01-31T05:10:54.583Z,98062.27
2019-01-31T05:13:25.517Z,98065.58
2019-01-31T05:15:56.574Z,98067.22
2019-01-31T05:18:27.542Z,98066.34
2019-01-31T05:20:58.395Z,98077.19
2019-01-31T05:23:29.292Z,98070.89
2019-01-31T05:25:59.773Z,98069.20
2019-01-31T05:28:30.868Z,98071.30
2019-01-31T05:31:03.937Z,98077.16
2019-01-31T05:33:35.135Z,98081.34
2019-01-31T05:36:05.826Z,98072.54
2019-01-31T05:38:36.935Z,98072.10
2019-01-31T05:41:07.879Z,98077.53
2019-01-31T05:43:38.788Z,98081.70
2019-01-31T05:46:10.029Z,98087.52
2019-01-31T05:48:41.090Z,98083.81
2019-01-31T05:51:11.894Z,98087.53
2019-01-31T05:53:42.893Z,98088.39
2019-01-31T05:56:13.913Z,98087.14
2019-01-31T05:58:44.385Z,98087.92
2019-01-31T06:01:15.906Z,98085.34
2019-01-31T06:03:46.819Z,98088.21
2019-01-31T06:06:17.880Z,98081.53
2019-01-31T06:08:48.735Z,98084.45
2019-01-31T06:11:19.770Z,98086.11
2019-01-31T06:13:50.672Z,98087.84
2019-01-31T06:16:21.151Z,98084.86
2019-01-31T06:18:52.415Z,98087.75
2019-01-31T06:21:23.346Z,98091.05
2019-01-31T06:23:54.364Z,98089.33
2019-01-31T06:26:25.258Z,98097.23
2019-01-31T06:28:56.313Z,98095.48
2019-01-31T06:31:26.843Z,98096.33
2019-01-31T06:33:57.851Z,98097.18
2019-01-31T06:36:28.610Z,98092.08
2019-01-31T06:38:59.620Z,98097.03
2019-01-31T06:41:30.248Z,98102.01
2019-01-31T06:44:01.193Z,98106.59
2019-01-31T06:46:31.591Z,98103.73
2019-01-31T06:49:03.261Z,98104.95
2019-01-31T06:51:34.485Z,98111.63
2019-01-31T06:54:07.602Z,98112.88
2019-01-31T06:56:39.175Z,98115.80
2019-01-31T06:59:10.262Z,98112.57
2019-01-31T07:01:41.314Z,98125.92
2019-01-31T07:04:12.244Z,98133.41
2019-01-31T07:06:43.297Z,98133.06
2019-01-31T07:09:14.222Z,98132.72
2019-01-31T07:11:47.236Z,98136.48
2019-01-31T07:14:18.386Z,98134.44
2019-01-31T07:16:49.321Z,98140.74
2019-01-31T07:19:20.267Z,98138.27
2019-01-31T07:21:53.273Z,98139.95
2019-01-31T07:24:24.373Z,98140.83
2019-01-31T07:26:56.397Z,98141.65
2019-01-31T07:29:28.313Z,98147.95
2019-01-31T07:32:03.620Z,98154.74
2019-01-31T07:34:33.470Z,98150.58
2019-01-31T07:37:06.303Z,98153.52
2019-01-31T07:39:37.220Z,98152.39
2019-01-31T07:42:08.073Z,98155.31
2019-01-31T07:44:38.515Z,98159.07
2019-01-31T07:47:09.400Z,98149.03
2019-01-31T07:49:40.531Z,98153.28
2019-01-31T07:52:11.713Z,98150.37
2019-01-31T07:54:42.463Z,98148.25
2019-01-31T07:57:13.486Z,98145.78
2019-01-31T07:59:44.383Z,98144.50
2019-01-31T08:02:15.268Z,98146.27
2019-01-31T08:04:46.194Z,98150.91
2019-01-31T08:07:16.644Z,98144.19
2019-01-31T08:09:47.564Z,98149.69
2019-01-31T08:12:18.831Z,98151.78
2019-01-31T08:14:49.613Z,98150.18
2019-01-31T08:17:20.569Z,98153.62
2019-01-31T08:19:51.718Z,98152.84
2019-01-31T08:22:22.084Z,98157.05
2019-01-31T08:24:53.673Z,98157.47
2019-01-31T08:27:24.517Z,98151.63
2019-01-31T08:29:55.359Z,98160.46
2019-01-31T08:32:26.250Z,98159.66
2019-01-31T08:34:56.730Z,98162.20
2019-01-31T08:37:27.667Z,98163.91
2019-01-31T08:39:58.900Z,98167.27
2019-01-31T08:42:29.903Z,98165.19
2019-01-31T08:45:00.730Z,98166.91
2019-01-31T08:47:31.788Z,98172.34
2019-01-31T08:50:02.678Z,98174.02
2019-01-31T08:52:33.653Z,98177.39
2019-01-31T08:55:05.061Z,98179.48
2019-01-31T08:57:35.923Z,98181.59
2019-01-31T09:00:08.799Z,98187.50
2019-01-31T09:02:40.855Z,98183.75
2019-01-31T09:05:11.801Z,98183.34
2019-01-31T09:07:42.949Z,98179.95
2019-01-31T09:10:16.451Z,98186.27
2019-01-31T09:12:47.907Z,98185.48
2019-01-31T09:15:22.766Z,98181.73
2019-01-31T09:17:54.988Z,98182.14
2019-01-31T09:20:37.293Z,98182.55
2019-01-31T09:23:26.546Z,98168.30
2019-01-31T09:26:33.931Z,98168.72
2019-01-31T09:29:54.200Z,98175.00
2019-01-31T09:33:09.003Z,98173.35
2019-01-31T09:36:05.480Z,98185.08
2019-01-31T09:39:20.368Z,98186.33
2019-01-31T09:42:26.590Z,98191.80
2019-01-31T09:45:21.620Z,98189.23
2019-01-31T09:48:08.103Z,98199.31
2019-01-31T09:51:19.906Z,98198.45
2019-01-31T09:54:11.009Z,98197.17
2019-01-31T09:57:23.929Z,98198.43
2019-01-31T10:00:27.981Z,98195.88
2019-01-31T10:03:51.262Z,98189.57
2019-01-31T10:06:43.367Z,98185.70
2019-01-31T10:09:55.320Z,98181.81
2019-01-31T10:13:22.686Z,98181.81
2019-01-31T10:16:23.029Z,98184.34
2019-01-31T10:19:47.868Z,98187.83
2019-01-31T10:23:09.963Z,98175.72
2019-01-31T10:26:05.040Z,98177.85
2019-01-31T10:29:13.001Z,98174.45
2019-01-31T10:32:13.912Z,98173.13
2019-01-31T10:35:29.828Z,98168.42
2019-01-31T10:38:25.033Z,98157.81
2019-01-31T10:41:39.248Z,98153.81
2019-01-31T10:45:05.212Z,98147.89
2019-01-31T10:48:27.521Z,98148.25
2019-01-31T10:51:34.772Z,98147.94
2019-01-31T10:54:16.879Z,98151.38
2019-01-31T10:57:30.068Z,98146.67
2019-01-31T11:00:30.251Z,98146.21
2019-01-31T11:03:32.152Z,98157.05
2019-01-31T11:06:41.391Z,98151.13
2019-01-31T11:10:22.183Z,98156.67
2019-01-31T11:13:33.547Z,98158.06
2019-01-31T11:16:28.670Z,98155.98
2019-01-31T11:19:52.212Z,98158.14
2019-01-31T11:23:01.263Z,98151.88
2019-01-31T11:26:13.878Z,98155.23
2019-01-31T11:29:19.035Z,98159.47
2019-01-31T11:32:30.307Z,98151.11
2019-01-31T11:35:35.229Z,98153.61
2019-01-31T11:38:44.112Z,98156.20
2019-01-31T11:42:10.756Z,98161.65
2019-01-31T11:45:25.005Z,98151.11
2019-01-31T11:48:34.913Z,98154.02
2019-01-31T11:51:38.902Z,98143.84
2019-01-31T11:54:55.414Z,98145.61
2019-01-31T11:57:48.291Z,98140.64
2019-01-31T12:00:23.820Z,98132.34
2019-01-31T12:02:55.845Z,98135.41
2019-01-31T12:05:27.651Z,98131.63
2019-01-31T12:08:00.466Z,98135.01
2019-01-31T12:10:31.402Z,98138.79
2019-01-31T12:13:05.085Z,98130.39
2019-01-31T12:15:36.172Z,98135.41
2019-01-31T12:18:07.198Z,98129.47
2019-01-31T12:20:37.738Z,98130.20
2019-01-31T12:23:08.586Z,98131.42
2019-01-31T12:25:39.722Z,98130.91
2019-01-31T12:28:10.672Z,98134.77
2019-01-31T12:30:41.784Z,98124.28
2019-01-31T12:33:12.737Z,98127.67
2019-01-31T12:35:43.591Z,98120.95
2019-01-31T12:38:14.650Z,98123.05
2019-01-31T12:40:45.788Z,98125.53
2019-01-31T12:43:18.319Z,98126.72
2019-01-31T12:45:50.882Z,98118.27
2019-01-31T12:48:21.372Z,98111.98
2019-01-31T12:50:52.805Z,98106.90
2019-01-31T12:53:24.789Z,98108.22
2019-01-31T12:55:57.773Z,98109.16
2019-01-31T12:58:33.612Z,98105.86
2019-01-31T13:01:03.489Z,98096.67
2019-01-31T13:03:33.895Z,98092.94
2019-01-31T13:06:04.976Z,98081.59
2019-01-31T13:08:35.707Z,98079.08
2019-01-31T13:11:07.385Z,98075.29
2019-01-31T13:13:45.975Z,98079.81
2019-01-31T13:16:10.995Z,98083.59
2019-01-31T13:18:42.984Z,98075.97
2019-01-31T13:21:14.147Z,98078.85
2019-01-31T13:23:45.194Z,98076.27
2019-01-31T13:26:15.967Z,98074.48
2019-01-31T13:28:46.382Z,98075.70
2019-01-31T13:31:18.087Z,98072.76
2019-01-31T13:33:49.010Z,98068.29
2019-01-31T13:36:19.996Z,98062.02
2019-01-31T13:38:52.192Z,98058.75
2019-01-31T13:41:24.362Z,98059.30
2019-01-31T13:43:57.604Z,98058.51
2019-01-31T13:46:29.050Z,98061.89
2019-01-31T13:49:00.080Z,98061.09
2019-01-31T13:51:31.028Z,98062.34
2019-01-31T13:54:02.089Z,98057.77
2019-01-31T13:56:44.906Z,98055.67
2019-01-31T13:59:06.983Z,98063.68
2019-01-31T14:01:38.149Z,98059.08
2019-01-31T14:04:09.120Z,98058.64
2019-01-31T14:06:41.174Z,98051.89
2019-01-31T14:09:14.142Z,98048.95
2019-01-31T14:11:45.089Z,98046.86
2019-01-31T14:14:16.071Z,98044.75
2019-01-31T14:16:48.120Z,98033.85
2019-01-31T14:19:21.183Z,98038.45
2019-01-31T14:21:52.175Z,98037.20
2019-01-31T14:24:22.600Z,98041.78
2019-01-31T14:26:54.104Z,98039.73
2019-01-31T14:29:25.410Z,98045.64
2019-01-31T14:31:58.197Z,98048.56
2019-01-31T14:34:29.831Z,98046.88
2019-01-31T14:37:00.224Z,98051.95
2019-01-31T14:39:32.139Z,98057.03
2019-01-31T14:42:02.652Z,98055.78
2019-01-31T14:44:33.748Z,98057.47
2019-01-31T14:47:04.163Z,98054.52
2019-01-31T14:49:35.759Z,98050.31
2019-01-31T14:52:06.516Z,98047.84
2019-01-31T14:54:37.296Z,98040.69
2019-01-31T14:57:08.505Z,98039.02
2019-01-31T14:59:39.558Z,98033.13
2019-01-31T15:02:10.482Z,98039.89
2019-01-31T15:04:41.700Z,98044.08
2019-01-31T15:07:12.489Z,98032.31
2019-01-31T15:09:43.405Z,98037.38
2019-01-31T15:12:14.097Z,98044.92
2019-01-31T15:14:44.515Z,98046.62
2019-01-31T15:17:15.490Z,98045.78
2019-01-31T15:19:46.631Z,98031.92
2019-01-31T15:22:17.819Z,98048.32
2019-01-31T15:24:48.638Z,98047.06
2019-01-31T15:27:19.439Z,98048.30
2019-01-31T15:29:50.424Z,98044.96
2019-01-31T15:32:21.427Z,98046.63
2019-01-31T15:34:52.186Z,98056.72
2019-01-31T15:37:22.650Z,98058.37
2019-01-31T15:39:53.566Z,98059.22
2019-01-31T15:42:25.185Z,98061.72
2019-01-31T15:44:56.519Z,98064.68
2019-01-31T15:47:27.077Z,98070.95
2019-01-31T15:49:57.602Z,98068.04
2019-01-31T15:52:28.586Z,98074.31
2019-01-31T15:54:59.585Z,98075.58
2019-01-31T15:57:30.738Z,98072.22
2019-01-31T16:00:01.677Z,98070.55
2019-01-31T16:02:32.722Z,98068.03
2019-01-31T16:05:03.643Z,98064.67
2019-01-31T16:07:34.600Z,98070.12
2019-01-31T16:10:05.738Z,98070.53
2019-01-31T16:12:36.537Z,98074.31
2019-01-31T16:15:08.232Z,98077.25
2019-01-31T16:17:38.627Z,98071.80
2019-01-31T16:20:10.607Z,98073.89
2019-01-31T16:22:43.087Z,98076.84
2019-01-31T16:25:13.703Z,98076.83
2019-01-31T16:27:44.618Z,98084.38
2019-01-31T16:30:16.085Z,98081.88
2019-01-31T16:32:46.833Z,98085.63
2019-01-31T16:35:17.833Z,98091.10
2019-01-31T16:37:49.024Z,98084.38
2019-01-31T16:40:19.936Z,98091.91
2019-01-31T16:42:50.873Z,98090.66
2019-01-31T16:45:21.728Z,98094.42
2019-01-31T16:47:54.786Z,98095.69
2019-01-31T16:50:27.770Z,98090.65
2019-01-31T16:52:59.824Z,98091.91
2019-01-31T16:55:30.917Z,98084.38
2019-01-31T16:58:01.927Z,98092.77
2019-01-31T17:00:33.999Z,98087.30
2019-01-31T17:03:05.259Z,98086.07
2019-01-31T17:05:38.011Z,98080.59
2019-01-31T17:08:09.057Z,98088.98
2019-01-31T17:10:39.834Z,98083.55
2019-01-31T17:13:10.959Z,98084.37
2019-01-31T17:15:44.017Z,98079.33
2019-01-31T17:18:14.961Z,98081.44
2019-01-31T17:20:46.817Z,98078.92
2019-01-31T17:23:17.230Z,98078.52
2019-01-31T17:25:48.033Z,98077.67
2019-01-31T17:28:19.051Z,98081.03
2019-01-31T17:30:49.978Z,98078.49
2019-01-31T17:33:20.894Z,98078.94
2019-01-31T17:35:51.847Z,98075.58
2019-01-31T17:38:22.292Z,98075.16
2019-01-31T17:40:53.791Z,98078.51
2019-01-31T17:43:24.679Z,98075.16
2019-01-31T17:45:55.809Z,98078.09
2019-01-31T17:48:26.681Z,98076.84
2019-01-31T17:50:57.609Z,98076.41
2019-01-31T17:53:28.046Z,98074.73
2019-01-31T17:55:59.096Z,98078.09
2019-01-31T17:58:30.517Z,98075.56
2019-01-31T18:01:01.203Z,98069.28
2019-01-31T18:03:32.585Z,98070.13
2019-01-31T18:06:03.248Z,98068.44
2019-01-31T18:08:34.240Z,98069.27
2019-01-31T18:11:05.245Z,98070.53
2019-01-31T18:13:36.297Z,98069.70
2019-01-31T18:16:07.178Z,98065.49
2019-01-31T18:18:38.324Z,98075.99
2019-01-31T18:21:09.243Z,98073.48
2019-01-31T18:23:40.155Z,98078.09
2019-01-31T18:26:11.255Z,98072.22
2019-01-31T18:28:42.196Z,98080.18
2019-01-31T18:31:12.935Z,98084.38
2019-01-31T18:33:43.472Z,98082.71
2019-01-31T18:36:14.922Z,98081.45
2019-01-31T18:38:45.398Z,98081.03
2019-01-31T18:41:16.451Z,98075.98
2019-01-31T18:43:47.203Z,98071.36
2019-01-31T18:46:18.415Z,98078.52
2019-01-31T18:48:49.908Z,98073.45
2019-01-31T18:51:20.455Z,98077.23
2019-01-31T18:53:53.743Z,98078.91
2019-01-31T18:56:25.560Z,98079.30
2019-01-31T18:58:56.737Z,98073.86
2019-01-31T19:01:27.541Z,98073.44
2019-01-31T19:03:58.572Z,98076.34
2019-01-31T19:06:29.411Z,98071.34
2019-01-31T19:09:01.009Z,98075.95
2019-01-31T19:11:31.571Z,98077.22
2019-01-31T19:14:02.455Z,98073.02
2019-01-31T19:16:33.595Z,98082.63
2019-01-31T19:19:04.740Z,98076.33
2019-01-31T19:21:35.560Z,98083.90
2019-01-31T19:24:08.657Z,98074.27
2019-01-31T19:26:39.554Z,98072.58
2019-01-31T19:29:10.954Z,98068.82
2019-01-31T19:31:41.550Z,98068.41
2019-01-31T19:34:13.693Z,98071.37
2019-01-31T19:36:44.984Z,98068.84
2019-01-31T19:39:18.909Z,98066.75
2019-01-31T19:41:49.566Z,98060.89
2019-01-31T19:44:21.702Z,98060.03
2019-01-31T19:46:53.546Z,98055.00
2019-01-31T19:49:25.752Z,98049.56
2019-01-31T19:51:58.775Z,98052.51
2019-01-31T19:54:30.157Z,98052.07
2019-01-31T19:57:01.040Z,98061.72
2019-01-31T19:59:31.760Z,98064.64
2019-01-31T20:02:03.290Z,98049.97
2019-01-31T20:04:34.826Z,98049.97
2019-01-31T20:07:06.425Z,98048.30
2019-01-31T20:09:38.723Z,98053.32
2019-01-31T20:12:09.879Z,98054.55
2019-01-31T20:14:40.743Z,98060.41
2019-01-31T20:17:11.751Z,98057.47
2019-01-31T20:19:42.885Z,98052.89
2019-01-31T20:22:13.774Z,98054.11
2019-01-31T20:24:44.916Z,98055.36
2019-01-31T20:27:15.801Z,98052.81
2019-01-31T20:29:46.989Z,98054.03
2019-01-31T20:32:17.858Z,98051.50
2019-01-31T20:34:48.823Z,98061.12
2019-01-31T20:37:21.762Z,98053.99
2019-01-31T20:39:53.997Z,98054.41
2019-01-31T20:42:25.878Z,98053.94
2019-01-31T20:44:57.882Z,98049.81
2019-01-31T20:47:30.797Z,98043.09
2019-01-31T20:50:04.067Z,98044.33
2019-01-31T20:52:34.924Z,98043.91
2019-01-31T20:55:06.986Z,98049.36
2019-01-31T20:57:39.247Z,98050.59
2019-01-31T21:00:14.857Z,98053.48
2019-01-31T21:02:48.101Z,98061.02
2019-01-31T21:05:21.226Z,98051.44
2019-01-31T21:07:52.015Z,98053.08
2019-01-31T21:10:22.407Z,98052.63
2019-01-31T21:12:53.646Z,98038.43
2019-01-31T21:15:26.131Z,98044.26
2019-01-31T21:17:59.166Z,98046.28
2019-01-31T21:20:32.091Z,98046.23
2019-01-31T21:23:04.565Z,98044.98
2019-01-31T21:25:35.151Z,98048.34
2019-01-31T21:28:06.689Z,98036.13
2019-01-31T21:30:41.554Z,98039.48
2019-01-31T21:33:14.133Z,98037.38
2019-01-31T21:35:45.128Z,98036.59
2019-01-31T21:38:16.232Z,98043.70
2019-01-31T21:40:47.207Z,98034.89
2019-01-31T21:43:18.194Z,98026.03
2019-01-31T21:45:51.236Z,98026.84
2019-01-31T21:48:22.292Z,98023.95
2019-01-31T21:50:53.097Z,98034.39
2019-01-31T21:53:25.179Z,98029.77
2019-01-31T21:55:59.904Z,98025.13
2019-01-31T21:58:30.670Z,98024.70
2019-01-31T22:01:03.279Z,98025.06
2019-01-31T22:03:34.149Z,98017.95
2019-01-31T22:06:05.418Z,98017.11
2019-01-31T22:08:36.612Z,98013.37
2019-01-31T22:11:07.382Z,98020.11
2019-01-31T22:13:38.210Z,98017.13
2019-01-31T22:16:09.723Z,98015.00
2019-01-31T22:18:40.385Z,98010.85
2019-01-31T22:21:11.325Z,98013.70
2019-01-31T22:23:42.257Z,98024.08
2019-01-31T22:26:13.432Z,98025.41
2019-01-31T22:28:44.451Z,98026.66
2019-01-31T22:31:15.402Z,98030.44
2019-01-31T22:33:46.395Z,98033.42
2019-01-31T22:36:17.855Z,98031.74
2019-01-31T22:38:48.451Z,98025.02
2019-01-31T22:41:19.434Z,98028.42
2019-01-31T22:43:50.452Z,98035.63
2019-01-31T22:46:21.508Z,98031.03
2019-01-31T22:48:52.567Z,98031.44
2019-01-31T22:51:23.042Z,98025.14
2019-01-31T22:53:54.437Z,98025.55
2019-01-31T22:56:25.422Z,98025.56
2019-01-31T22:58:56.359Z,98015.58
2019-01-31T23:01:45.202Z,98014.73
2019-01-31T23:04:16.629Z,98003.88
2019-01-31T23:06:47.573Z,98004.32
2019-01-31T23:09:18.515Z,98000.15
2019-01-31T23:11:49.690Z,98008.10
2019-01-31T23:14:20.718Z,98002.30
2019-01-31T23:16:51.566Z,98001.09
2019-01-31T23:19:22.325Z,98007.38
2019-01-31T23:21:53.527Z,97999.06
2019-01-31T23:24:26.673Z,97991.55
2019-01-31T23:26:57.557Z,97982.33
2019-01-31T23:29:28.597Z,97981.42
2019-01-31T23:31:59.544Z,97986.85
2019-01-31T23:34:31.406Z,97973.47
2019-01-31T23:37:02.721Z,97980.95
2019-01-31T23:39:33.556Z,97975.49
2019-01-31T23:42:05.846Z,97976.75
2019-01-31T23:44:37.694Z,97975.89
2019-01-31T23:47:10.191Z,97982.18
2019-01-31T23:49:42.776Z,97988.89
2019-01-31T23:52:14.612Z,97986.41
2019-01-31T23:54:47.584Z,97985.53
2019-01-31T23:57:18.633Z,97986.74
2019-01-31T23:59:49.767Z,97992.13
